Aeroporto :
LOGIN :

Iscrizione | Disclaimer

   EN    FR    IT 

 










Sommario :    VFR   VFR Marginale   IFR   IFR Intensivo   IFR Molto Intensivo
Visibilità : 
Base nubi : 
>= 8 km
>= 3000ft
5 / 8 km
1000 / 3000 ft
1500m / 5 km
500 / 1000 ft
800 / 1500m
200 / 500 ft
< 800m
< 200 ft
Simboli :   Temporali  Nebbia  Neve Forte  Precipitazioni Forti  Vento > 20 kt
SIGMETs :   Varie  Temporali  Ghiacco  Turbolenza  Onda orograficha  Ceneri Vulcaniche






- Altitudine del aeroporto : 242 ft
- Codice IATA : DUB


EIDW - Dublin

ULTIMO METAR :
  • 141300Z 26010KT 230V290 9999 -RA SCT009 BKN025 BKN040 13/11 Q1018 NOSIG

METARs OBSOLETI :
  • 141230Z 26010KT 210V290 9999 -RA FEW009 BKN040 BKN100 13/12 Q1018 NOSIG
  • 141200Z 28011KT 9999 -DZ FEW014 BKN040 BKN100 13/11 Q1019 NOSIG
  • 141130Z 27013KT 9999 -DZ FEW018 BKN040 BKN100 13/11 Q1019 NOSIG
  • 141100Z 29016KT 9999 SCT018 BKN030 BKN100 14/10 Q1019 NOSIG

TAF TAF EIDW
Valido dal 14 a 12 ore il 15 a 12 ore UTC


141100Z 1412/1512 29015KT 9999 SCT015 BKN030
BECMG 1412/1414 26012KT
TEMPO 1412/1419 4500 -RADZ BR BKN008
PROB40
TEMPO 1419/1503 4500 BKN012
TEMPO 1503/1510 4500 -DZ BR BKN005



MetMap, La meteo Aeronautica in un colpo d'occhio ! - Copyright ORBIFLY Dicembre 2007 - Disclaimer

ORBIFLY MET'MAP TEAM :

Programmazione e sviluppo : Alexandra Zaïnal
Concezione : Baudouin d'Aumeries
Aiuto per la programmazione : Marc-Olivier Méhu
Supporto tecnico e logistico : Manuel Goepfert
Aiuto per la traduzione : Arnaldo La Scala

Contatto : metmap@orbifly.com




FONTI E CREDITI :

   NOAA